• Join FlightAware (Why Join?)
  • Login
  • US Flag 
09:41AM EDT


 

Airport Tracker/Info


-or-


 

Live Flight TrackerFlight Track Log ✈ VH-PID ✈ 12-Jul-2013 ✈ YORG / OAG - YSDU / DBO

Flight Track Log - Related Links

Times and Time Zones

All times are in EDT time to prevent confusion due to time zone crossing. See the VH-PID flight status page for this flight to view local times or setup timezone preferences in your user account.

Time Position Orientation Groundspeed Altitude Reporting Facility
EDT Latitude Longitude Course Direction KTS MPH feet Rate Location/Type
08:13PM -33.3513 149.0924 343° North 135 155 5,500  Level Aus ATC (RADAR)
08:14PM -33.3197 149.0812 343° North 127 146 7,400 1,620 Climbing Aus ATC (RADAR)
08:14PM -33.3020 149.0750 342° North 137 158 7,800 1,320 Climbing FlightAware
08:15PM -33.2870 149.0720 351° North 133 153 8,500 1,920 Climbing FlightAware
08:15PM -33.2680 149.0680 351° North 133 153 9,400 2,700 Climbing FlightAware
08:15PM -33.2650 149.0674 351° North 140 161 10,100 1,920 Climbing Aus ATC (RADAR)
08:16PM -33.2440 149.0580 341° North 126 145 10,700 1,260 Climbing FlightAware
08:16PM -33.2200 149.0460 337° Northwest 140 161 11,700 1,440 Climbing FlightAware
08:17PM -33.1920 149.0330 339° North 155 178 12,800 1,380 Climbing FlightAware
08:18PM -33.1630 149.0200 339° North 156 180 13,700 1,500 Climbing FlightAware
08:19PM -33.1360 149.0070 338° Northwest 159 183 14,800 1,800 Climbing FlightAware
08:19PM -33.1095 148.9943 338° Northwest 157 181 16,100 1,200 Climbing Aus ATC (RADAR)
08:19PM -33.1050 148.9920 338° Northwest 155 178 15,700 660 Descending FlightAware
08:20PM -33.0840 148.9822 338° Northwest 170 196 16,500 420 Climbing Aus ATC (RADAR)
08:20PM -33.0740 148.9770 338° Northwest 190 219 16,000  Descending FlightAware
08:21PM -33.0439 148.9630 338° Northwest 211 243 16,500  Climbing Aus ATC (RADAR)
08:21PM -33.0220 148.9530 338° Northwest 227 261 16,000 -540 Descending FlightAware
08:22PM -32.9810 148.9340 339° North 242 278 16,000  Level FlightAware
08:22PM -32.9330 148.9110 338° Northwest 247 284 16,000 360 Level FlightAware
08:23PM -32.8977 148.8946 338° Northwest 248 285 16,500  Climbing Aus ATC (RADAR)
08:23PM -32.8910 148.8910 338° Northwest 241 277 16,000 -720 Descending FlightAware
08:24PM -32.8480 148.8710 339° North 246 283 16,000  Level FlightAware
08:24PM -32.7970 148.8470 338° Northwest 247 284 16,000  Level FlightAware
08:25PM -32.7480 148.8240 338° Northwest 248 285 16,000 -480 Level FlightAware
08:26PM -32.7030 148.8030 339° North 263 303 15,400 -1,500 Descending FlightAware
08:27PM -32.6500 148.7780 338° Northwest 274 315 13,900 -1,620 Descending FlightAware
08:27PM -32.6110 148.7601 338° Northwest 276 318 13,300 -2,280 Descending Aus ATC (RADAR)
08:27PM -32.6030 148.7560 338° Northwest 261 300 12,400 -2,580 Descending FlightAware
08:28PM -32.5662 148.7387 338° Northwest 261 300 11,600 -1,080 Descending Aus ATC (RADAR)
08:28PM -32.5300 148.7210 338° Northwest 247 284 11,100 -2,880 Descending FlightAware
08:29PM -32.5190 148.7170 343° North 241 277 9,400 -2,460 Descending FlightAware
08:29PM -32.4870 148.7010 337° Northwest 241 277 9,400  Level FlightAware
08:30PM -32.4650 148.6900 337° Northwest 241 277 9,400  Level FlightAware
08:30PM -32.4550 148.6840 333° Northwest 241 277 9,400  Level FlightAware
08:30PM -32.4340 148.6740 338° Northwest 241 277 9,400  Level FlightAware
08:32PM -32.2852 148.6068 43° Northeast -5,220 Descending Aus ATC (Calculated)
08:32PM -32.2852 148.6068 339° North  Level Aus ATC (Calculated)
08:34PM -32.2221 148.5788 339° North  Level FlightAware Approximate
08:35PM -32.2167 148.5747 339° North  Level Estimated
08:36PM -32.2167 148.5747 140° Southeast  Level Estimated
08:37PM -32.2167 148.5747 320° Northwest  Level Estimated